Time;durP1;ratioP1;P1;durP2;ratioP2;P2;SDS_P1;SDS_P2;PMS_P1;PMS_P2;Temp;Humidity;BMP_temperature;BMP_pressure;BME280_temperature;BME280_humidity;BME280_pressure;Samples;Min_cycle;Max_cycle;Signal;HPM_P1;HPM_P2
2023/08/02 00:01:07;;;;;;;4.18;1.40;;;;;;;15.32;100.00;99075.47;5029750;28;20081;-64
2023/08/02 00:03:34;;;;;;;3.50;1.30;;;;;;;15.29;100.00;99073.09;5030753;28;20056;-64
2023/08/02 00:06:01;;;;;;;5.55;1.40;;;;;;;15.30;100.00;99069.50;5030656;28;20057;-64
2023/08/02 00:08:29;;;;;;;4.35;1.58;;;;;;;15.14;100.00;99064.66;5029243;28;20077;-64
2023/08/02 00:10:55;;;;;;;4.88;1.65;;;;;;;15.02;100.00;99056.94;5011692;28;20089;-64
2023/08/02 00:13:22;;;;;;;4.30;1.80;;;;;;;15.11;100.00;99057.00;5029395;28;20495;-64
2023/08/02 00:15:52;;;;;;;4.68;1.73;;;;;;;15.15;100.00;99052.31;5029230;28;20045;-64
2023/08/02 00:18:19;;;;;;;5.72;1.50;;;;;;;15.24;100.00;99056.81;5033843;28;20150;-64
2023/08/02 00:20:47;;;;;;;4.13;1.33;;;;;;;15.24;100.00;99043.63;5009312;28;20053;-64
2023/08/02 00:23:14;;;;;;;3.75;1.42;;;;;;;15.29;100.00;99041.44;5018651;28;20049;-64
2023/08/02 00:25:41;;;;;;;3.67;1.42;;;;;;;15.18;100.00;99037.06;5028934;28;20038;-64
2023/08/02 00:28:07;;;;;;;4.15;1.50;;;;;;;15.24;100.00;99027.81;5030551;28;20100;-64
2023/08/02 00:30:43;;;;;;;5.95;1.45;;;;;;;15.19;100.00;99027.34;5038234;28;20053;-64
2023/08/02 00:33:10;;;;;;;4.18;1.58;;;;;;;15.11;100.00;99012.19;5030606;28;20371;-64
2023/08/02 00:35:46;;;;;;;4.45;1.60;;;;;;;15.05;100.00;99020.63;5034363;28;20052;-64
2023/08/02 00:38:13;;;;;;;5.05;1.80;;;;;;;15.06;100.00;99001.19;5041981;28;20059;-64
2023/08/02 00:40:40;;;;;;;7.05;1.90;;;;;;;14.97;100.00;99007.25;5028326;28;20129;-64
2023/08/02 00:43:07;;;;;;;4.82;1.65;;;;;;;14.95;100.00;99002.09;5020670;28;20049;-64
2023/08/02 00:45:35;;;;;;;4.32;1.48;;;;;;;14.99;100.00;99000.88;5044137;28;20434;-64
2023/08/02 00:48:02;;;;;;;5.07;1.58;;;;;;;14.92;100.00;98994.44;5038094;28;20049;-64
2023/08/02 00:50:33;;;;;;;4.82;1.65;;;;;;;14.93;100.00;98996.13;5030328;28;20645;-64
2023/08/02 00:53:00;;;;;;;4.90;1.67;;;;;;;14.87;100.00;98988.72;5036934;28;20131;-64
2023/08/02 00:55:27;;;;;;;2.90;1.33;;;;;;;14.90;100.00;98991.09;5049155;28;20053;-64
2023/08/02 00:57:53;;;;;;;3.72;1.30;;;;;;;14.80;100.00;98982.28;5011637;28;20477;-64
2023/08/02 01:00:20;;;;;;;4.18;1.60;;;;;;;14.73;100.00;98966.19;5026400;28;20061;-64
2023/08/02 01:02:47;;;;;;;4.75;1.58;;;;;;;14.84;100.00;98983.72;5040108;28;20052;-64
2023/08/02 01:05:14;;;;;;;5.05;1.58;;;;;;;14.87;100.00;98974.72;5028364;28;20045;-64
2023/08/02 01:07:51;;;;;;;4.78;1.60;;;;;;;14.91;100.00;98969.06;5028693;28;20490;-64
2023/08/02 01:10:42;;;;;;;3.67;1.40;;;;;;;14.99;100.00;98969.25;5027092;28;20068;-65
2023/08/02 01:13:13;;;;;;;3.83;1.60;;;;;;;15.00;100.00;98968.28;5030058;28;20052;-64
2023/08/02 01:15:41;;;;;;;3.58;1.55;;;;;;;14.76;100.00;98955.38;5031003;28;20041;-64
2023/08/02 01:18:08;;;;;;;3.78;1.73;;;;;;;14.69;100.00;98964.75;5029446;28;20053;-64
2023/08/02 01:20:35;;;;;;;6.63;2.10;;;;;;;14.57;100.00;98956.03;5028549;28;20061;-64
2023/08/02 01:23:01;;;;;;;5.68;1.70;;;;;;;14.58;100.00;98941.94;5029189;28;20058;-64
2023/08/02 01:25:31;;;;;;;4.15;1.60;;;;;;;14.38;100.00;98908.50;5030188;28;20041;-65
2023/08/02 01:28:02;;;;;;;4.40;1.60;;;;;;;14.69;100.00;98945.47;5030457;28;20057;-65
2023/08/02 01:30:33;;;;;;;5.30;2.35;;;;;;;14.65;100.00;98941.44;5026342;28;20065;-64
2023/08/02 01:33:00;;;;;;;4.75;1.80;;;;;;;14.83;100.00;98945.16;5020690;28;20049;-64
2023/08/02 01:35:27;;;;;;;4.85;1.50;;;;;;;14.94;100.00;98938.97;5030193;28;20073;-64
2023/08/02 01:37:54;;;;;;;5.38;1.65;;;;;;;14.87;100.00;98922.03;5029318;28;20490;-64
2023/08/02 01:40:21;;;;;;;4.55;1.70;;;;;;;14.93;100.00;98929.41;5031700;28;20053;-64
2023/08/02 01:42:48;;;;;;;7.00;2.30;;;;;;;14.91;100.00;98928.69;5033949;28;20128;-64
2023/08/02 01:45:15;;;;;;;5.43;1.50;;;;;;;14.94;100.00;98929.28;5033454;28;20049;-64
2023/08/02 01:47:41;;;;;;;4.28;1.95;;;;;;;14.93;100.00;98919.72;5033636;28;20051;-64
2023/08/02 01:50:08;;;;;;;7.60;1.95;;;;;;;14.89;100.00;98918.31;5044309;28;20469;-64
2023/08/02 01:52:35;;;;;;;4.45;1.80;;;;;;;14.78;100.00;98911.31;5033701;28;20064;-64
2023/08/02 01:55:02;;;;;;;5.93;1.95;;;;;;;14.84;100.00;98915.22;5033691;28;20053;-64
2023/08/02 01:57:28;;;;;;;7.95;2.00;;;;;;;14.87;100.00;98901.75;5034303;28;20051;-65
2023/08/02 01:59:55;;;;;;;6.00;2.00;;;;;;;14.90;100.00;98908.59;5032495;28;20053;-64
2023/08/02 02:02:22;;;;;;;6.53;2.30;;;;;;;14.87;100.00;98899.13;5027663;28;20072;-64
2023/08/02 02:04:50;;;;;;;8.80;2.30;;;;;;;14.91;100.00;98891.81;5037981;28;20415;-64
2023/08/02 02:07:17;;;;;;;7.22;2.20;;;;;;;14.98;100.00;98887.72;5033547;28;20499;-64
2023/08/02 02:09:44;;;;;;;9.07;2.58;;;;;;;14.87;100.00;98893.03;5033801;28;20461;-64
2023/08/02 02:12:10;;;;;;;7.22;2.20;;;;;;;14.86;100.00;98892.22;5026434;28;20522;-64
2023/08/02 02:14:37;;;;;;;5.25;2.17;;;;;;;14.91;100.00;98886.53;5032547;28;20428;-64
2023/08/02 02:17:04;;;;;;;6.53;2.42;;;;;;;15.10;100.00;98886.66;5032965;28;20061;-64
2023/08/02 02:19:30;;;;;;;7.57;2.20;;;;;;;15.20;100.00;98881.41;5032473;28;20049;-64
2023/08/02 02:21:57;;;;;;;9.13;3.05;;;;;;;14.97;100.00;98876.31;5027259;28;20061;-64
2023/08/02 02:24:24;;;;;;;6.07;2.28;;;;;;;14.93;100.00;98882.00;5033010;28;20526;-64
2023/08/02 02:26:50;;;;;;;7.95;3.17;;;;;;;14.89;100.00;98885.84;5032858;28;20403;-64
2023/08/02 02:29:17;;;;;;;7.70;2.45;;;;;;;14.89;100.00;98883.19;5032557;28;20064;-64
2023/08/02 02:31:44;;;;;;;7.45;2.28;;;;;;;14.98;100.00;98878.00;5030151;28;20041;-64
2023/08/02 02:34:10;;;;;;;6.75;2.33;;;;;;;14.95;100.00;98864.25;5032334;28;20080;-64
2023/08/02 02:36:38;;;;;;;10.52;3.28;;;;;;;14.97;100.00;98875.47;5031582;28;20041;-64
2023/08/02 02:39:05;;;;;;;7.00;2.28;;;;;;;14.93;100.00;98867.00;5025677;28;20492;-64
2023/08/02 02:41:32;;;;;;;8.02;2.42;;;;;;;14.91;100.00;98862.81;5023239;28;20056;-64
2023/08/02 02:43:58;;;;;;;9.15;3.00;;;;;;;15.00;100.00;98880.50;5014519;28;20064;-64
2023/08/02 02:46:25;;;;;;;8.02;2.85;;;;;;;14.99;100.00;98874.38;5031595;28;20754;-64
2023/08/02 02:48:52;;;;;;;7.38;2.50;;;;;;;15.20;100.00;98878.78;5028504;28;20068;-64
2023/08/02 02:51:19;;;;;;;9.32;3.03;;;;;;;15.22;100.00;98857.56;5025493;28;20077;-64
2023/08/02 02:53:45;;;;;;;7.97;2.88;;;;;;;15.36;100.00;98867.72;5031029;28;20151;-64
2023/08/02 02:56:12;;;;;;;9.82;3.60;;;;;;;15.14;100.00;98845.88;5031920;28;20367;-64
2023/08/02 02:58:38;;;;;;;10.15;3.85;;;;;;;15.25;100.00;98878.38;5032319;28;20159;-64
2023/08/02 03:01:05;;;;;;;9.63;3.38;;;;;;;15.28;100.00;98870.19;5029343;28;20514;-64
2023/08/02 03:03:32;;;;;;;9.27;3.05;;;;;;;15.31;100.00;98870.75;5020631;28;20050;-64
2023/08/02 03:05:59;;;;;;;7.93;2.85;;;;;;;15.46;100.00;98868.59;5012331;28;20060;-64
2023/08/02 03:08:25;;;;;;;7.85;2.63;;;;;;;15.43;100.00;98862.75;5022244;28;20052;-64
2023/08/02 03:10:52;;;;;;;7.32;2.50;;;;;;;15.36;100.00;98863.28;5027828;28;20046;-64
2023/08/02 03:13:19;;;;;;;9.63;2.90;;;;;;;15.46;100.00;98865.97;5040762;28;20459;-65
2023/08/02 03:15:45;;;;;;;8.82;2.90;;;;;;;15.43;100.00;98850.41;5036808;28;20060;-64
2023/08/02 03:18:12;;;;;;;7.50;2.42;;;;;;;15.50;100.00;98855.97;5032398;28;20057;-64
2023/08/02 03:20:39;;;;;;;8.18;2.92;;;;;;;15.50;100.00;98853.34;5027286;28;20049;-64
2023/08/02 03:23:07;;;;;;;7.82;2.40;;;;;;;15.54;100.00;98852.91;5030608;28;20057;-64
2023/08/02 03:25:34;;;;;;;7.88;2.47;;;;;;;15.43;100.00;98858.31;5031821;28;20049;-64
2023/08/02 03:28:00;;;;;;;7.07;2.92;;;;;;;15.52;100.00;98849.59;5032154;28;20434;-64
2023/08/02 03:30:27;;;;;;;9.25;3.10;;;;;;;15.69;100.00;98845.47;5028605;28;20060;-64
2023/08/02 03:32:54;;;;;;;7.35;2.78;;;;;;;15.59;100.00;98847.25;5031485;28;20057;-64
2023/08/02 03:35:20;;;;;;;10.00;3.20;;;;;;;15.46;100.00;98844.88;5031501;28;20045;-63
2023/08/02 03:37:47;;;;;;;9.10;2.78;;;;;;;15.45;100.00;98851.09;5030440;28;20056;-64
2023/08/02 03:40:14;;;;;;;7.80;2.42;;;;;;;15.30;100.00;98844.56;5016666;28;20400;-64
2023/08/02 03:42:40;;;;;;;7.35;2.38;;;;;;;15.44;100.00;98843.31;5019238;28;20045;-64
2023/08/02 03:45:07;;;;;;;10.18;2.88;;;;;;;15.48;100.00;98836.81;5031459;28;20046;-64
2023/08/02 03:47:34;;;;;;;8.63;3.33;;;;;;;15.51;100.00;98833.91;5031975;28;20056;-64
2023/08/02 03:50:01;;;;;;;11.27;3.47;;;;;;;15.49;100.00;98838.47;5019240;28;20054;-64
2023/08/02 03:52:27;;;;;;;11.68;3.15;;;;;;;15.57;100.00;98838.66;5028910;28;20079;-64
2023/08/02 03:54:54;;;;;;;12.10;3.85;;;;;;;15.55;100.00;98836.13;5031126;28;20402;-64
2023/08/02 03:57:21;;;;;;;9.50;3.40;;;;;;;15.52;100.00;98840.84;5031025;28;20395;-64
2023/08/02 03:59:47;;;;;;;9.88;3.22;;;;;;;15.61;100.00;98833.94;5031377;28;20045;-64
2023/08/02 04:02:14;;;;;;;12.93;4.30;;;;;;;15.63;100.00;98835.44;5029044;28;20518;-64
2023/08/02 04:04:41;;;;;;;10.43;3.25;;;;;;;15.72;100.00;98833.78;5030535;28;20048;-64
2023/08/02 04:07:09;;;;;;;10.45;3.08;;;;;;;15.73;100.00;98836.28;5030163;28;20107;-64
2023/08/02 04:09:36;;;;;;;7.25;2.60;;;;;;;15.76;100.00;98827.31;5030095;28;20128;-64
2023/08/02 04:12:03;;;;;;;9.07;3.17;;;;;;;15.83;100.00;98832.88;5028208;28;20049;-64
2023/08/02 04:14:30;;;;;;;9.93;2.80;;;;;;;15.85;100.00;98823.84;5031355;28;20501;-64
2023/08/02 04:16:57;;;;;;;8.40;2.70;;;;;;;15.74;100.00;98824.81;5013452;28;20411;-64
2023/08/02 04:19:25;;;;;;;11.57;2.97;;;;;;;15.84;100.00;98827.44;5028842;28;20530;-64
2023/08/02 04:21:52;;;;;;;12.13;3.58;;;;;;;15.80;100.00;98826.06;5011217;28;20054;-64
2023/08/02 04:24:18;;;;;;;10.80;4.05;;;;;;;15.87;100.00;98826.34;5025637;28;20536;-64
2023/08/02 04:26:45;;;;;;;12.95;4.07;;;;;;;15.89;100.00;98824.41;5017523;28;20395;-64
2023/08/02 04:29:12;;;;;;;9.40;3.13;;;;;;;15.97;100.00;98828.97;5030665;28;20053;-64
2023/08/02 04:31:38;;;;;;;11.70;3.60;;;;;;;15.91;100.00;98825.94;5024789;28;20057;-64
2023/08/02 04:34:05;;;;;;;9.07;2.97;;;;;;;15.93;100.00;98820.50;5030819;28;20049;-64
2023/08/02 04:36:32;;;;;;;8.95;3.20;;;;;;;15.88;100.00;98801.63;5029570;28;20064;-64
2023/08/02 04:39:02;;;;;;;9.25;3.17;;;;;;;15.88;100.00;98798.97;5029206;28;20059;-64
2023/08/02 04:41:28;;;;;;;8.85;3.10;;;;;;;16.01;100.00;98815.38;5018002;28;20053;-64
2023/08/02 04:43:55;;;;;;;9.15;3.08;;;;;;;16.06;100.00;98821.09;5029376;28;20159;-64
2023/08/02 04:46:25;;;;;;;7.47;2.70;;;;;;;16.14;100.00;98826.47;5030424;28;20049;-64
2023/08/02 04:48:52;;;;;;;9.40;2.90;;;;;;;16.07;100.00;98822.72;5030664;28;20057;-64
2023/08/02 04:51:19;;;;;;;14.23;3.85;;;;;;;16.11;100.00;98824.13;5020513;28;20065;-64
2023/08/02 04:53:48;;;;;;;9.75;3.13;;;;;;;15.93;100.00;98808.13;5025014;28;20046;-64
2023/08/02 04:56:15;;;;;;;8.18;2.60;;;;;;;16.00;100.00;98818.97;5029457;28;20045;-64
2023/08/02 04:58:42;;;;;;;6.45;2.67;;;;;;;16.06;100.00;98817.59;5030036;28;20038;-64
2023/08/02 05:01:09;;;;;;;8.00;2.65;;;;;;;16.13;100.00;98816.09;5027560;28;20403;-64
2023/08/02 05:03:36;;;;;;;7.20;3.05;;;;;;;16.08;100.00;98820.94;5022377;28;20076;-64
2023/08/02 05:06:05;;;;;;;5.85;2.03;;;;;;;16.10;100.00;98822.47;5029672;28;20046;-65
2023/08/02 05:08:36;;;;;;;7.70;2.58;;;;;;;16.09;100.00;98817.31;5029769;28;20056;-64
2023/08/02 05:11:08;;;;;;;7.40;2.38;;;;;;;16.09;100.00;98814.69;5026685;28;20045;-64
2023/08/02 05:13:35;;;;;;;7.05;2.30;;;;;;;16.13;100.00;98816.09;5029851;28;20536;-64
2023/08/02 05:16:02;;;;;;;6.88;2.08;;;;;;;16.16;100.00;98807.84;5012664;28;20654;-64
2023/08/02 05:18:28;;;;;;;7.15;2.63;;;;;;;16.13;100.00;98803.72;5030157;28;20743;-64
2023/08/02 05:20:55;;;;;;;6.63;2.42;;;;;;;16.24;100.00;98815.09;5024880;28;20061;-65
2023/08/02 05:23:22;;;;;;;6.65;2.55;;;;;;;16.21;100.00;98808.28;5028991;28;20045;-64
2023/08/02 05:25:48;;;;;;;6.07;2.17;;;;;;;16.19;100.00;98802.31;5021207;28;20042;-64
2023/08/02 05:28:15;;;;;;;12.70;3.25;;;;;;;16.23;100.00;98813.41;5026112;28;20458;-65
2023/08/02 05:30:42;;;;;;;8.90;2.30;;;;;;;16.28;100.00;98813.84;5027387;28;20127;-64
2023/08/02 05:33:09;;;;;;;8.63;3.15;;;;;;;16.23;100.00;98802.84;5028846;28;20050;-65
2023/08/02 05:35:35;;;;;;;8.43;2.92;;;;;;;16.26;100.00;98800.78;5001457;28;20042;-65
2023/08/02 05:38:02;;;;;;;6.32;2.22;;;;;;;16.35;100.00;98804.38;5025897;28;20210;-65
2023/08/02 05:40:29;;;;;;;8.45;2.55;;;;;;;16.42;100.00;98802.81;5025951;28;20054;-65
2023/08/02 05:42:56;;;;;;;10.35;2.70;;;;;;;16.59;100.00;98800.41;5017324;28;20052;-65
2023/08/02 05:45:23;;;;;;;8.45;2.40;;;;;;;16.57;100.00;98805.84;5029919;28;20049;-65
2023/08/02 05:47:50;;;;;;;8.13;2.45;;;;;;;16.43;100.00;98798.38;5024852;28;20061;-66
2023/08/02 05:50:17;;;;;;;7.82;2.53;;;;;;;16.22;100.00;98777.41;5027085;28;20494;-65
2023/08/02 05:52:44;;;;;;;7.32;2.28;;;;;;;16.37;100.00;98799.78;5027088;28;20057;-65
2023/08/02 05:55:11;;;;;;;8.48;2.92;;;;;;;16.45;100.00;98788.50;5012582;28;20053;-65
2023/08/02 05:57:39;;;;;;;6.32;1.83;;;;;;;16.39;100.00;98792.53;5029809;28;20125;-65
2023/08/02 06:00:07;;;;;;;9.48;2.60;;;;;;;16.37;100.00;98798.94;5029437;28;20068;-65
2023/08/02 06:02:34;;;;;;;5.60;1.92;;;;;;;16.31;100.00;98781.88;5011211;28;20088;-65
2023/08/02 06:05:01;;;;;;;7.82;2.47;;;;;;;16.37;100.00;98783.94;5028738;28;20053;-65
2023/08/02 06:07:29;;;;;;;10.35;2.92;;;;;;;16.36;100.00;98781.44;5029229;28;20147;-65
2023/08/02 06:09:56;;;;;;;12.02;3.15;;;;;;;16.24;100.00;98783.41;5031054;28;20141;-65
2023/08/02 06:12:23;;;;;;;8.07;2.58;;;;;;;16.38;100.00;98782.97;5023260;28;20083;-65
2023/08/02 06:14:49;;;;;;;8.25;2.65;;;;;;;16.39;100.00;98770.59;5027373;28;20056;-65
2023/08/02 06:17:16;;;;;;;8.20;2.83;;;;;;;16.37;100.00;98780.47;5028259;28;20075;-65
2023/08/02 06:19:43;;;;;;;9.60;2.75;;;;;;;16.35;100.00;98769.22;5028339;28;20071;-65
2023/08/02 06:22:10;;;;;;;6.45;2.35;;;;;;;16.40;100.00;98767.81;5025902;28;20049;-65
2023/08/02 06:24:37;;;;;;;8.65;2.78;;;;;;;16.28;100.00;98761.84;5029851;28;20067;-65
2023/08/02 06:27:04;;;;;;;8.77;2.90;;;;;;;16.36;100.00;98763.78;5030938;28;20151;-65
2023/08/02 06:29:31;;;;;;;7.63;2.78;;;;;;;16.37;100.00;98767.25;5030431;28;20144;-64
2023/08/02 06:31:59;;;;;;;8.90;2.63;;;;;;;16.43;100.00;98766.66;5025169;28;20050;-65
2023/08/02 06:34:28;;;;;;;7.07;2.47;;;;;;;16.45;100.00;98764.72;5014323;28;20100;-64
2023/08/02 06:36:56;;;;;;;8.95;3.53;;;;;;;16.29;100.00;98770.63;5025187;28;20045;-65
2023/08/02 06:39:23;;;;;;;9.05;2.85;;;;;;;16.36;100.00;98753.22;5025956;28;20053;-64
2023/08/02 06:41:50;;;;;;;10.07;2.90;;;;;;;16.39;100.00;98760.03;5015158;28;20056;-65
2023/08/02 06:44:18;;;;;;;6.55;2.40;;;;;;;16.39;100.00;98755.56;5018999;28;20052;-65
2023/08/02 06:46:44;;;;;;;10.15;3.45;;;;;;;16.51;100.00;98764.16;5032533;28;20484;-64
2023/08/02 06:49:11;;;;;;;9.40;2.70;;;;;;;16.60;100.00;98765.09;5012652;28;20103;-65
2023/08/02 06:51:38;;;;;;;7.22;2.50;;;;;;;16.79;100.00;98758.91;5017488;28;20374;-65
2023/08/02 06:54:05;;;;;;;9.13;2.72;;;;;;;16.90;100.00;98764.03;5029521;28;20422;-65
2023/08/02 06:56:36;;;;;;;7.88;3.13;;;;;;;16.86;100.00;98758.22;5030606;28;20065;-65
2023/08/02 06:59:04;;;;;;;7.63;2.38;;;;;;;16.87;100.00;98761.69;5015491;28;20049;-65
2023/08/02 07:01:30;;;;;;;12.57;2.40;;;;;;;16.82;100.00;98759.47;5029991;28;20427;-65
2023/08/02 07:03:57;;;;;;;7.30;2.53;;;;;;;16.92;100.00;98761.25;5031332;28;20064;-65
2023/08/02 07:06:25;;;;;;;7.50;2.75;;;;;;;17.00;100.00;98764.84;5028266;28;20042;-65
2023/08/02 07:08:53;;;;;;;7.00;2.33;;;;;;;17.09;100.00;98755.19;5014426;28;20053;-64
2023/08/02 07:11:21;;;;;;;7.97;2.88;;;;;;;17.00;100.00;98759.53;5018029;28;20053;-64
2023/08/02 07:14:13;;;;;;;9.25;2.75;;;;;;;16.99;100.00;98755.22;5029245;28;20049;-65
2023/08/02 07:16:48;;;;;;;7.65;2.55;;;;;;;16.94;100.00;98754.00;5011691;28;20550;-65
2023/08/02 07:19:17;;;;;;;10.52;2.75;;;;;;;16.93;100.00;98753.19;5013853;28;20065;-65
2023/08/02 07:21:46;;;;;;;9.07;2.58;;;;;;;17.06;100.00;98753.66;5019088;28;20046;-65
2023/08/02 07:24:15;;;;;;;9.18;2.55;;;;;;;17.03;100.00;98743.41;4996590;28;20049;-65
2023/08/02 07:26:42;;;;;;;7.80;2.65;;;;;;;17.15;100.00;98743.19;5037202;28;20111;-65
2023/08/02 07:29:13;;;;;;;8.98;2.90;;;;;;;17.23;100.00;98749.38;5036770;28;20210;-65
2023/08/02 07:31:40;;;;;;;9.10;2.92;;;;;;;17.47;100.00;98742.69;5027944;28;20410;-65
2023/08/02 07:34:07;;;;;;;10.95;3.15;;;;;;;17.84;100.00;98736.41;5045815;28;20045;-65
2023/08/02 07:36:35;;;;;;;7.47;2.58;;;;;;;18.09;100.00;98740.09;5038672;28;20045;-65
2023/08/02 07:39:03;;;;;;;10.48;3.10;;;;;;;18.12;100.00;98731.84;5030790;28;20053;-65
2023/08/02 07:41:30;;;;;;;8.10;2.80;;;;;;;18.11;100.00;98729.34;5027338;28;20411;-65
2023/08/02 07:43:57;;;;;;;7.85;2.20;;;;;;;17.98;100.00;98725.28;5018251;28;20049;-65
2023/08/02 07:46:24;;;;;;;8.38;2.30;;;;;;;18.28;100.00;98723.16;5039055;28;20076;-65
2023/08/02 07:48:51;;;;;;;8.20;2.60;;;;;;;18.33;100.00;98720.06;5049635;28;20074;-66
2023/08/02 07:51:19;;;;;;;8.35;2.40;;;;;;;18.78;100.00;98714.47;5027208;28;20519;-65
2023/08/02 07:53:46;;;;;;;7.88;2.42;;;;;;;18.88;100.00;98725.00;5017023;28;20129;-65
2023/08/02 07:56:13;;;;;;;7.28;2.20;;;;;;;18.89;100.00;98712.56;5027606;28;20479;-65
2023/08/02 07:58:39;;;;;;;7.50;2.30;;;;;;;18.76;100.00;98705.84;5020084;28;20045;-66
2023/08/02 08:01:07;;;;;;;7.93;2.30;;;;;;;18.75;100.00;98722.75;5023681;28;20057;-65
2023/08/02 08:03:35;;;;;;;11.70;2.92;;;;;;;18.57;100.00;98722.00;5021471;28;20480;-65
2023/08/02 08:06:12;;;;;;;7.82;2.60;;;;;;;18.66;100.00;98728.19;5027360;28;20411;-65
2023/08/02 08:08:40;;;;;;;10.15;2.47;;;;;;;18.71;100.00;98716.09;5028711;28;20053;-65
2023/08/02 08:11:06;;;;;;;8.07;2.20;;;;;;;18.63;100.00;98720.53;5027898;28;20052;-65
2023/08/02 08:13:33;;;;;;;7.97;2.22;;;;;;;18.53;100.00;98710.88;5030298;28;20063;-65
2023/08/02 08:16:00;;;;;;;8.70;2.47;;;;;;;18.64;100.00;98724.84;5031208;28;20797;-65
2023/08/02 08:18:29;;;;;;;10.82;2.83;;;;;;;18.59;100.00;98718.22;5028166;28;20506;-65
2023/08/02 08:20:57;;;;;;;5.45;1.90;;;;;;;18.69;100.00;98722.56;5022251;28;20431;-65
2023/08/02 08:23:23;;;;;;;6.53;2.10;;;;;;;19.02;100.00;98720.09;5032182;28;20061;-65
2023/08/02 08:25:50;;;;;;;7.60;2.25;;;;;;;18.78;100.00;98721.59;5025446;28;20056;-65
2023/08/02 08:28:17;;;;;;;8.15;2.55;;;;;;;18.95;100.00;98719.88;5030640;28;20049;-63
2023/08/02 08:30:44;;;;;;;9.10;2.75;;;;;;;19.24;100.00;98724.75;5024113;28;20056;-63
2023/08/02 08:33:11;;;;;;;9.02;2.60;;;;;;;19.28;100.00;98719.97;5025710;28;20052;-63
2023/08/02 08:35:37;;;;;;;5.28;1.85;;;;;;;19.45;100.00;98724.31;5029838;28;20144;-63
2023/08/02 08:38:04;;;;;;;6.78;1.90;;;;;;;19.65;100.00;98721.34;5029389;28;20053;-63
2023/08/02 08:40:32;;;;;;;7.03;1.88;;;;;;;19.33;100.00;98725.59;5029021;28;20052;-62
2023/08/02 08:43:00;;;;;;;7.47;2.00;;;;;;;19.07;100.00;98729.22;5024657;28;20076;-62
2023/08/02 08:45:27;;;;;;;7.60;1.90;;;;;;;19.05;100.00;98731.19;5027795;28;20049;-62
2023/08/02 08:47:54;;;;;;;7.28;1.80;;;;;;;19.23;100.00;98733.72;5018439;28;20523;-62
2023/08/02 08:50:22;;;;;;;5.05;1.90;;;;;;;19.35;100.00;98719.16;5016879;28;20423;-63
2023/08/02 08:52:52;;;;;;;7.25;1.90;;;;;;;19.10;100.00;98720.09;5029067;28;21082;-63
2023/08/02 08:55:21;;;;;;;6.28;2.13;;;;;;;18.78;100.00;98714.47;5028034;28;20068;-63
2023/08/02 08:57:50;;;;;;;7.35;2.22;;;;;;;19.05;100.00;98730.34;5011854;28;20051;-63
2023/08/02 09:00:17;;;;;;;5.95;2.05;;;;;;;19.07;100.00;98725.72;5035880;28;20467;-63
2023/08/02 09:02:46;;;;;;;6.95;1.90;;;;;;;19.02;100.00;98726.22;5020110;28;20049;-63
2023/08/02 09:05:13;;;;;;;6.38;1.92;;;;;;;19.02;100.00;98730.69;5029563;28;20049;-63
2023/08/02 09:07:40;;;;;;;7.75;2.00;;;;;;;19.01;100.00;98721.88;5029811;28;20060;-63
2023/08/02 09:10:07;;;;;;;8.02;2.00;;;;;;;19.15;100.00;98725.75;5029917;28;20391;-63
2023/08/02 09:12:44;;;;;;;7.20;2.20;;;;;;;18.88;100.00;98726.81;5028063;28;20054;-64
2023/08/02 09:15:14;;;;;;;5.75;1.75;;;;;;;18.91;100.00;98724.69;5020873;28;20136;-64
2023/08/02 09:17:51;;;;;;;8.50;1.98;;;;;;;18.88;100.00;98716.22;5028331;28;20045;-63
2023/08/02 09:20:20;;;;;;;5.50;1.70;;;;;;;18.67;100.00;98732.50;5014265;28;20551;-63
2023/08/02 09:22:47;;;;;;;7.47;1.83;;;;;;;18.38;100.00;98721.25;5029066;28;20482;-63
2023/08/02 09:25:23;;;;;;;6.68;1.90;;;;;;;18.37;100.00;98724.06;5029037;28;20140;-64
2023/08/02 09:27:51;;;;;;;5.72;2.17;;;;;;;18.44;100.00;98719.78;5002107;28;20045;-64
2023/08/02 09:30:34;;;;;;;7.60;2.40;;;;;;;18.34;100.00;98717.25;5031969;28;20104;-64
2023/08/02 09:33:02;;;;;;;7.40;2.05;;;;;;;18.71;100.00;98726.69;5029130;28;20069;-65
2023/08/02 09:35:44;;;;;;;5.82;2.00;;;;;;;18.76;100.00;98729.72;5027983;28;20100;-65
2023/08/02 09:38:11;;;;;;;6.47;2.22;;;;;;;18.96;100.00;98722.38;5024644;28;20060;-65
2023/08/02 09:40:40;;;;;;;7.38;2.00;;;;;;;19.00;100.00;98719.38;5024344;28;20132;-65
2023/08/02 09:43:27;;;;;;;7.57;2.15;;;;;;;18.96;100.00;98722.38;5017299;28;20050;-65
2023/08/02 09:45:54;;;;;;;12.02;2.60;;;;;;;18.97;100.00;98713.41;5039737;28;20052;-65
2023/08/02 09:48:33;;;;;;;11.18;3.40;;;;;;;18.89;100.00;98718.72;5015995;28;20061;-64
2023/08/02 09:51:03;;;;;;;11.07;4.18;;;;;;;18.78;100.00;98724.25;5010978;28;20395;-64
2023/08/02 09:53:31;;;;;;;10.75;3.20;;;;;;;18.94;100.00;98723.53;5028147;28;20056;-65
2023/08/02 09:56:00;;;;;;;8.20;2.60;;;;;;;18.85;100.00;98727.13;5012354;28;20054;-65
2023/08/02 09:58:30;;;;;;;9.02;2.45;;;;;;;18.61;100.00;98731.31;5010656;28;20076;-64
2023/08/02 10:00:58;;;;;;;8.90;2.85;;;;;;;18.47;100.00;98731.88;5020516;28;20416;-64
2023/08/02 10:03:27;;;;;;;9.38;2.42;;;;;;;18.50;100.00;98721.81;5032496;28;20081;-64
2023/08/02 10:05:58;;;;;;;9.90;2.33;;;;;;;18.53;100.00;98729.44;5024925;28;20058;-64
2023/08/02 10:08:29;;;;;;;9.13;3.05;;;;;;;18.52;100.00;98719.84;5033203;28;20577;-65
2023/08/02 10:10:57;;;;;;;13.57;2.50;;;;;;;18.75;100.00;98732.50;5031380;28;20510;-65
2023/08/02 10:13:26;;;;;;;8.77;2.13;;;;;;;18.94;100.00;98734.94;5032714;28;20123;-65
2023/08/02 10:15:55;;;;;;;9.40;2.40;;;;;;;18.77;100.00;98728.72;5033342;28;20419;-65
2023/08/02 10:18:24;;;;;;;9.40;2.17;;;;;;;18.49;100.00;98727.28;5004776;28;20814;-65
2023/08/02 10:20:52;;;;;;;6.60;2.22;;;;;;;18.45;100.00;98725.91;5024397;28;20149;-65
2023/08/02 10:23:19;;;;;;;7.30;1.65;;;;;;;18.55;100.00;98731.94;5029791;28;20053;-64
2023/08/02 10:25:47;;;;;;;10.70;2.25;;;;;;;18.27;100.00;98736.56;5011092;28;20479;-65
2023/08/02 10:28:15;;;;;;;7.70;2.30;;;;;;;18.17;100.00;98736.69;5029927;28;20049;-65
2023/08/02 10:30:42;;;;;;;6.72;1.95;;;;;;;18.40;100.00;98735.16;5028096;28;20064;-65
2023/08/02 10:33:20;;;;;;;9.50;2.60;;;;;;;18.44;100.00;98725.09;5030762;28;20045;-65
2023/08/02 10:36:07;;;;;;;6.20;1.80;;;;;;;18.81;100.00;98734.56;5031169;28;20053;-65
2023/08/02 10:38:39;;;;;;;8.43;1.88;;;;;;;18.97;100.00;98733.81;5029069;28;20502;-65
2023/08/02 10:41:11;;;;;;;7.80;2.33;;;;;;;18.82;100.00;98733.56;5039543;28;20448;-65
2023/08/02 10:43:53;;;;;;;12.50;5.30;;;;;;;19.20;100.00;98734.03;5026037;28;20042;-65
2023/08/02 10:46:28;;;;;;;9.23;2.88;;;;;;;19.24;100.00;98729.25;5039165;28;20057;-65
2023/08/02 10:49:17;;;;;;;8.60;3.65;;;;;;;18.99;100.00;98745.09;5019120;28;20064;-64
2023/08/02 10:51:45;;;;;;;7.60;1.88;;;;;;;18.83;100.00;98734.44;5022406;28;20065;-64
2023/08/02 10:54:23;;;;;;;8.98;2.30;;;;;;;18.68;100.00;98737.66;5030935;28;20088;-64
2023/08/02 10:56:53;;;;;;;9.95;2.42;;;;;;;18.94;100.00;98739.44;5027391;28;20081;-65
2023/08/02 10:59:22;;;;;;;6.72;2.00;;;;;;;18.89;100.00;98739.06;5031285;28;20053;-64
2023/08/02 11:01:57;;;;;;;10.35;2.05;;;;;;;18.78;100.00;98738.34;5025168;28;20482;-64
2023/08/02 11:04:24;;;;;;;7.18;1.90;;;;;;;18.65;100.00;98734.47;5034938;28;20380;-64
2023/08/02 11:06:52;;;;;;;7.35;1.92;;;;;;;19.03;100.00;98737.63;5024971;28;20124;-62
2023/08/02 11:09:29;;;;;;;7.90;2.17;;;;;;;19.20;100.00;98731.41;5030286;28;20045;-63
2023/08/02 11:11:56;;;;;;;6.63;1.88;;;;;;;19.41;100.00;98732.78;5029291;28;20077;-63
2023/08/02 11:14:27;;;;;;;6.10;1.95;;;;;;;19.45;100.00;98742.06;5029486;28;20049;-63
2023/08/02 11:16:54;;;;;;;7.72;2.10;;;;;;;19.21;100.00;98732.22;5029545;28;20057;-63
2023/08/02 11:19:22;;;;;;;8.10;2.08;;;;;;;19.04;100.00;98745.44;5029880;28;20056;-63
2023/08/02 11:21:54;;;;;;;9.55;2.65;;;;;;;18.96;100.00;98759.50;5027836;28;20049;-63
2023/08/02 11:24:21;;;;;;;6.70;1.90;;;;;;;19.34;100.00;98746.69;5029396;28;20060;-62
2023/08/02 11:26:54;;;;;;;4.50;1.50;;;;;;;19.35;100.00;98748.34;5030221;28;20180;-63
2023/08/02 11:29:22;;;;;;;6.90;2.13;;;;;;;19.59;100.00;98754.69;5029790;28;20072;-63